sensor_id;sensor_type;location;lat;lon;timestamp;temperature;humidity
36352;DHT22;22382;44.768;17.206;2024-03-22T00:01:55;13.20;93.00
36352;DHT22;22382;44.768;17.206;2024-03-22T00:04:21;13.20;93.50
36352;DHT22;22382;44.768;17.206;2024-03-22T00:06:48;13.20;93.90
36352;DHT22;22382;44.768;17.206;2024-03-22T00:09:16;13.20;94.20
36352;DHT22;22382;44.768;17.206;2024-03-22T00:11:43;13.30;94.60
36352;DHT22;22382;44.768;17.206;2024-03-22T00:14:10;13.30;95.20
36352;DHT22;22382;44.768;17.206;2024-03-22T00:16:37;13.30;95.80
36352;DHT22;22382;44.768;17.206;2024-03-22T00:19:03;13.30;96.30
36352;DHT22;22382;44.768;17.206;2024-03-22T00:21:30;13.30;96.90
36352;DHT22;22382;44.768;17.206;2024-03-22T00:23:59;13.30;98.00
36352;DHT22;22382;44.768;17.206;2024-03-22T00:26:27;13.30;99.00
36352;DHT22;22382;44.768;17.206;2024-03-22T00:28:53;13.30;99.70
36352;DHT22;22382;44.768;17.206;2024-03-22T00:31:19;13.30;99.90
36352;DHT22;22382;44.768;17.206;2024-03-22T00:33:46;13.30;99.90
36352;DHT22;22382;44.768;17.206;2024-03-22T00:36:12;13.30;99.90
36352;DHT22;22382;44.768;17.206;2024-03-22T00:38:38;13.30;99.90
36352;DHT22;22382;44.768;17.206;2024-03-22T00:41:04;13.30;99.90
36352;DHT22;22382;44.768;17.206;2024-03-22T00:43:30;13.30;99.90
36352;DHT22;22382;44.768;17.206;2024-03-22T00:45:56;13.30;99.90
36352;DHT22;22382;44.768;17.206;2024-03-22T00:48:22;13.30;99.90
36352;DHT22;22382;44.768;17.206;2024-03-22T00:50:48;13.30;99.90
36352;DHT22;22382;44.768;17.206;2024-03-22T00:53:14;13.30;99.90
36352;DHT22;22382;44.768;17.206;2024-03-22T00:55:41;13.30;99.90
36352;DHT22;22382;44.768;17.206;2024-03-22T00:58:07;13.30;99.90
36352;DHT22;22382;44.768;17.206;2024-03-22T01:00:33;13.30;99.90
36352;DHT22;22382;44.768;17.206;2024-03-22T01:02:59;13.20;99.90
36352;DHT22;22382;44.768;17.206;2024-03-22T01:05:25;13.20;99.90
36352;DHT22;22382;44.768;17.206;2024-03-22T01:07:52;13.20;99.90
36352;DHT22;22382;44.768;17.206;2024-03-22T01:10:18;13.20;99.90
36352;DHT22;22382;44.768;17.206;2024-03-22T01:12:44;13.10;99.90
36352;DHT22;22382;44.768;17.206;2024-03-22T01:15:10;13.20;99.90
36352;DHT22;22382;44.768;17.206;2024-03-22T01:17:36;13.20;99.90
36352;DHT22;22382;44.768;17.206;2024-03-22T01:20:03;13.20;99.90
36352;DHT22;22382;44.768;17.206;2024-03-22T01:22:29;13.10;99.90
36352;DHT22;22382;44.768;17.206;2024-03-22T01:24:55;13.10;99.90
36352;DHT22;22382;44.768;17.206;2024-03-22T01:27:21;13.20;99.90
36352;DHT22;22382;44.768;17.206;2024-03-22T01:29:48;13.10;99.90
36352;DHT22;22382;44.768;17.206;2024-03-22T01:32:14;13.00;99.90
36352;DHT22;22382;44.768;17.206;2024-03-22T01:34:40;13.00;99.90
36352;DHT22;22382;44.768;17.206;2024-03-22T01:37:06;13.00;99.90
36352;DHT22;22382;44.768;17.206;2024-03-22T01:39:32;13.00;99.90
36352;DHT22;22382;44.768;17.206;2024-03-22T01:41:58;12.90;99.90
36352;DHT22;22382;44.768;17.206;2024-03-22T01:44:28;12.90;99.90
36352;DHT22;22382;44.768;17.206;2024-03-22T01:46:54;12.80;99.90
36352;DHT22;22382;44.768;17.206;2024-03-22T01:49:21;12.80;99.90
36352;DHT22;22382;44.768;17.206;2024-03-22T01:51:48;12.80;99.90
36352;DHT22;22382;44.768;17.206;2024-03-22T01:54:16;12.70;99.90
36352;DHT22;22382;44.768;17.206;2024-03-22T01:56:42;12.70;99.90
36352;DHT22;22382;44.768;17.206;2024-03-22T01:59:09;12.70;99.90
36352;DHT22;22382;44.768;17.206;2024-03-22T02:01:36;12.80;99.90
36352;DHT22;22382;44.768;17.206;2024-03-22T02:04:02;12.80;99.90
36352;DHT22;22382;44.768;17.206;2024-03-22T02:06:28;12.70;99.90
36352;DHT22;22382;44.768;17.206;2024-03-22T02:08:56;12.80;99.90
36352;DHT22;22382;44.768;17.206;2024-03-22T02:11:22;12.80;99.90
36352;DHT22;22382;44.768;17.206;2024-03-22T02:13:49;12.70;99.90
36352;DHT22;22382;44.768;17.206;2024-03-22T02:16:16;12.80;99.90
36352;DHT22;22382;44.768;17.206;2024-03-22T02:18:42;12.80;99.90
36352;DHT22;22382;44.768;17.206;2024-03-22T02:21:10;12.80;99.90
36352;DHT22;22382;44.768;17.206;2024-03-22T02:23:38;12.70;99.90
36352;DHT22;22382;44.768;17.206;2024-03-22T02:26:06;12.70;99.90
36352;DHT22;22382;44.768;17.206;2024-03-22T02:28:33;12.70;99.90
36352;DHT22;22382;44.768;17.206;2024-03-22T02:31:00;12.70;99.90
36352;DHT22;22382;44.768;17.206;2024-03-22T02:33:26;12.60;99.90
36352;DHT22;22382;44.768;17.206;2024-03-22T02:35:52;12.60;99.90
36352;DHT22;22382;44.768;17.206;2024-03-22T02:38:19;12.50;99.90
36352;DHT22;22382;44.768;17.206;2024-03-22T02:40:46;12.50;99.90
36352;DHT22;22382;44.768;17.206;2024-03-22T02:43:12;12.50;99.90
36352;DHT22;22382;44.768;17.206;2024-03-22T02:45:39;12.50;99.90
36352;DHT22;22382;44.768;17.206;2024-03-22T02:48:06;12.60;99.90
36352;DHT22;22382;44.768;17.206;2024-03-22T02:50:36;12.50;99.90
36352;DHT22;22382;44.768;17.206;2024-03-22T02:53:03;12.60;99.90
36352;DHT22;22382;44.768;17.206;2024-03-22T02:55:35;12.50;99.90
36352;DHT22;22382;44.768;17.206;2024-03-22T02:58:01;12.50;99.90
36352;DHT22;22382;44.768;17.206;2024-03-22T03:00:28;12.50;99.90
36352;DHT22;22382;44.768;17.206;2024-03-22T03:02:54;12.50;99.90
36352;DHT22;22382;44.768;17.206;2024-03-22T03:05:20;12.50;99.90
36352;DHT22;22382;44.768;17.206;2024-03-22T03:07:48;12.50;99.90
36352;DHT22;22382;44.768;17.206;2024-03-22T03:10:14;12.50;99.90
36352;DHT22;22382;44.768;17.206;2024-03-22T03:12:40;12.50;99.90
36352;DHT22;22382;44.768;17.206;2024-03-22T03:15:07;12.50;99.90
36352;DHT22;22382;44.768;17.206;2024-03-22T03:17:33;12.50;99.90
36352;DHT22;22382;44.768;17.206;2024-03-22T03:19:59;12.50;99.90
36352;DHT22;22382;44.768;17.206;2024-03-22T03:22:25;12.50;99.90
36352;DHT22;22382;44.768;17.206;2024-03-22T03:24:51;12.60;99.90
36352;DHT22;22382;44.768;17.206;2024-03-22T03:27:17;12.50;99.90
36352;DHT22;22382;44.768;17.206;2024-03-22T03:29:43;12.60;99.90
36352;DHT22;22382;44.768;17.206;2024-03-22T03:32:09;12.60;99.90
36352;DHT22;22382;44.768;17.206;2024-03-22T03:34:36;12.50;99.90
36352;DHT22;22382;44.768;17.206;2024-03-22T03:37:02;12.50;99.90
36352;DHT22;22382;44.768;17.206;2024-03-22T03:39:28;12.50;99.90
36352;DHT22;22382;44.768;17.206;2024-03-22T03:41:55;12.50;99.90
36352;DHT22;22382;44.768;17.206;2024-03-22T03:44:21;12.50;99.90
36352;DHT22;22382;44.768;17.206;2024-03-22T03:46:47;12.50;99.90
36352;DHT22;22382;44.768;17.206;2024-03-22T03:49:13;12.50;99.90
36352;DHT22;22382;44.768;17.206;2024-03-22T03:51:39;12.50;99.90
36352;DHT22;22382;44.768;17.206;2024-03-22T03:54:05;12.50;99.90
36352;DHT22;22382;44.768;17.206;2024-03-22T03:56:31;12.50;99.90
36352;DHT22;22382;44.768;17.206;2024-03-22T03:58:58;12.40;99.90
36352;DHT22;22382;44.768;17.206;2024-03-22T04:01:24;12.40;99.90
36352;DHT22;22382;44.768;17.206;2024-03-22T04:03:50;12.40;99.90
36352;DHT22;22382;44.768;17.206;2024-03-22T04:06:16;12.40;99.90
36352;DHT22;22382;44.768;17.206;2024-03-22T04:08:43;12.40;99.90
36352;DHT22;22382;44.768;17.206;2024-03-22T04:11:10;12.40;99.90
36352;DHT22;22382;44.768;17.206;2024-03-22T04:13:37;12.40;99.90
36352;DHT22;22382;44.768;17.206;2024-03-22T04:16:03;12.40;99.90
36352;DHT22;22382;44.768;17.206;2024-03-22T04:18:30;12.40;99.90
36352;DHT22;22382;44.768;17.206;2024-03-22T04:20:58;12.40;99.90
36352;DHT22;22382;44.768;17.206;2024-03-22T04:23:25;12.40;99.90
36352;DHT22;22382;44.768;17.206;2024-03-22T04:25:54;12.40;99.90
36352;DHT22;22382;44.768;17.206;2024-03-22T04:28:20;12.30;99.90
36352;DHT22;22382;44.768;17.206;2024-03-22T04:31:04;12.30;99.90
36352;DHT22;22382;44.768;17.206;2024-03-22T04:33:31;12.30;99.90
36352;DHT22;22382;44.768;17.206;2024-03-22T04:35:59;12.30;99.90
36352;DHT22;22382;44.768;17.206;2024-03-22T04:38:26;12.30;99.90
36352;DHT22;22382;44.768;17.206;2024-03-22T04:40:52;12.30;99.90
36352;DHT22;22382;44.768;17.206;2024-03-22T04:43:19;12.30;99.90
36352;DHT22;22382;44.768;17.206;2024-03-22T04:45:46;12.20;99.90
36352;DHT22;22382;44.768;17.206;2024-03-22T04:48:17;12.30;99.90
36352;DHT22;22382;44.768;17.206;2024-03-22T04:50:45;12.20;99.90
36352;DHT22;22382;44.768;17.206;2024-03-22T04:53:11;12.20;99.90
36352;DHT22;22382;44.768;17.206;2024-03-22T04:55:37;12.20;99.90
36352;DHT22;22382;44.768;17.206;2024-03-22T04:58:03;12.20;99.90
36352;DHT22;22382;44.768;17.206;2024-03-22T05:00:30;12.20;99.90
36352;DHT22;22382;44.768;17.206;2024-03-22T05:02:56;12.30;99.90
36352;DHT22;22382;44.768;17.206;2024-03-22T05:05:22;12.30;99.90
36352;DHT22;22382;44.768;17.206;2024-03-22T05:07:48;12.30;99.90
36352;DHT22;22382;44.768;17.206;2024-03-22T05:10:14;12.40;99.90
36352;DHT22;22382;44.768;17.206;2024-03-22T05:12:42;12.40;99.90
36352;DHT22;22382;44.768;17.206;2024-03-22T05:15:09;12.50;99.90
36352;DHT22;22382;44.768;17.206;2024-03-22T05:17:35;12.50;99.90
36352;DHT22;22382;44.768;17.206;2024-03-22T05:20:01;12.60;99.90
36352;DHT22;22382;44.768;17.206;2024-03-22T05:22:28;12.60;99.90
36352;DHT22;22382;44.768;17.206;2024-03-22T05:24:54;12.60;99.90
36352;DHT22;22382;44.768;17.206;2024-03-22T05:27:20;12.60;99.90
36352;DHT22;22382;44.768;17.206;2024-03-22T05:29:46;12.60;99.90
36352;DHT22;22382;44.768;17.206;2024-03-22T05:32:12;12.60;99.90
36352;DHT22;22382;44.768;17.206;2024-03-22T05:34:38;12.60;99.90
36352;DHT22;22382;44.768;17.206;2024-03-22T05:37:05;12.60;99.90
36352;DHT22;22382;44.768;17.206;2024-03-22T05:39:31;12.60;99.90
36352;DHT22;22382;44.768;17.206;2024-03-22T05:41:57;12.60;99.90
36352;DHT22;22382;44.768;17.206;2024-03-22T05:44:23;12.70;99.90
36352;DHT22;22382;44.768;17.206;2024-03-22T05:46:49;12.70;99.90
36352;DHT22;22382;44.768;17.206;2024-03-22T05:49:16;12.80;99.90
36352;DHT22;22382;44.768;17.206;2024-03-22T05:51:42;12.80;99.90
36352;DHT22;22382;44.768;17.206;2024-03-22T05:54:09;12.80;99.90
36352;DHT22;22382;44.768;17.206;2024-03-22T05:56:35;12.90;99.90
36352;DHT22;22382;44.768;17.206;2024-03-22T05:59:02;13.00;99.90
36352;DHT22;22382;44.768;17.206;2024-03-22T06:01:29;13.10;99.90
36352;DHT22;22382;44.768;17.206;2024-03-22T06:03:55;13.20;99.90
36352;DHT22;22382;44.768;17.206;2024-03-22T06:06:22;13.30;99.90
36352;DHT22;22382;44.768;17.206;2024-03-22T06:08:51;13.40;99.90
36352;DHT22;22382;44.768;17.206;2024-03-22T06:11:23;13.50;99.90
36352;DHT22;22382;44.768;17.206;2024-03-22T06:13:49;13.70;99.90
36352;DHT22;22382;44.768;17.206;2024-03-22T06:16:16;13.70;99.90
36352;DHT22;22382;44.768;17.206;2024-03-22T06:18:43;13.80;99.90
36352;DHT22;22382;44.768;17.206;2024-03-22T06:21:09;13.80;99.90
36352;DHT22;22382;44.768;17.206;2024-03-22T06:23:35;14.00;99.90
36352;DHT22;22382;44.768;17.206;2024-03-22T06:26:01;14.10;99.90
36352;DHT22;22382;44.768;17.206;2024-03-22T06:28:28;14.10;99.90
36352;DHT22;22382;44.768;17.206;2024-03-22T06:30:54;14.20;99.90
36352;DHT22;22382;44.768;17.206;2024-03-22T06:33:21;14.20;99.90
36352;DHT22;22382;44.768;17.206;2024-03-22T06:35:47;14.40;99.90
36352;DHT22;22382;44.768;17.206;2024-03-22T06:38:13;14.40;99.90
36352;DHT22;22382;44.768;17.206;2024-03-22T06:40:40;14.50;99.90
36352;DHT22;22382;44.768;17.206;2024-03-22T06:43:06;14.50;99.90
36352;DHT22;22382;44.768;17.206;2024-03-22T06:45:32;14.70;99.90
36352;DHT22;22382;44.768;17.206;2024-03-22T06:47:58;14.90;99.90
36352;DHT22;22382;44.768;17.206;2024-03-22T06:50:24;15.10;99.90
36352;DHT22;22382;44.768;17.206;2024-03-22T06:52:56;15.10;99.90
36352;DHT22;22382;44.768;17.206;2024-03-22T06:55:22;15.20;99.90
36352;DHT22;22382;44.768;17.206;2024-03-22T06:57:49;15.20;99.90
36352;DHT22;22382;44.768;17.206;2024-03-22T07:00:16;15.30;99.90
36352;DHT22;22382;44.768;17.206;2024-03-22T07:02:43;15.40;99.90
36352;DHT22;22382;44.768;17.206;2024-03-22T07:05:10;15.30;99.90
36352;DHT22;22382;44.768;17.206;2024-03-22T07:07:37;15.40;99.90
36352;DHT22;22382;44.768;17.206;2024-03-22T07:10:04;15.30;99.90
36352;DHT22;22382;44.768;17.206;2024-03-22T07:12:34;15.40;99.90
36352;DHT22;22382;44.768;17.206;2024-03-22T07:15:01;15.40;99.90
36352;DHT22;22382;44.768;17.206;2024-03-22T07:17:27;15.50;99.90
36352;DHT22;22382;44.768;17.206;2024-03-22T07:19:54;15.50;99.90
36352;DHT22;22382;44.768;17.206;2024-03-22T07:22:22;15.60;99.90
36352;DHT22;22382;44.768;17.206;2024-03-22T07:24:48;15.50;99.90
36352;DHT22;22382;44.768;17.206;2024-03-22T07:27:15;15.60;99.90
36352;DHT22;22382;44.768;17.206;2024-03-22T07:29:41;15.80;99.90
36352;DHT22;22382;44.768;17.206;2024-03-22T07:32:08;16.00;99.90
36352;DHT22;22382;44.768;17.206;2024-03-22T07:34:34;16.00;99.90
36352;DHT22;22382;44.768;17.206;2024-03-22T07:37:00;15.90;99.90
36352;DHT22;22382;44.768;17.206;2024-03-22T07:39:26;15.90;99.90
36352;DHT22;22382;44.768;17.206;2024-03-22T07:41:52;16.20;99.90
36352;DHT22;22382;44.768;17.206;2024-03-22T07:44:18;16.20;99.90
36352;DHT22;22382;44.768;17.206;2024-03-22T07:46:46;16.30;99.90
36352;DHT22;22382;44.768;17.206;2024-03-22T07:49:13;16.30;99.90
36352;DHT22;22382;44.768;17.206;2024-03-22T07:51:39;16.50;99.90
36352;DHT22;22382;44.768;17.206;2024-03-22T07:54:05;16.60;99.90
36352;DHT22;22382;44.768;17.206;2024-03-22T07:56:31;16.70;98.70
36352;DHT22;22382;44.768;17.206;2024-03-22T07:58:58;16.70;98.10
36352;DHT22;22382;44.768;17.206;2024-03-22T08:01:24;16.70;97.40
36352;DHT22;22382;44.768;17.206;2024-03-22T08:03:51;16.60;97.50
36352;DHT22;22382;44.768;17.206;2024-03-22T08:06:17;16.80;97.80
36352;DHT22;22382;44.768;17.206;2024-03-22T08:08:44;17.00;97.00
36352;DHT22;22382;44.768;17.206;2024-03-22T08:11:10;17.10;95.10
36352;DHT22;22382;44.768;17.206;2024-03-22T08:13:36;17.30;94.30
36352;DHT22;22382;44.768;17.206;2024-03-22T08:16:03;17.30;93.90
36352;DHT22;22382;44.768;17.206;2024-03-22T08:18:30;17.40;93.00
36352;DHT22;22382;44.768;17.206;2024-03-22T08:20:56;17.60;92.20
36352;DHT22;22382;44.768;17.206;2024-03-22T08:23:22;17.60;91.60
36352;DHT22;22382;44.768;17.206;2024-03-22T08:25:48;17.60;92.20
36352;DHT22;22382;44.768;17.206;2024-03-22T08:28:15;17.60;91.40
36352;DHT22;22382;44.768;17.206;2024-03-22T08:30:41;17.60;91.80
36352;DHT22;22382;44.768;17.206;2024-03-22T08:33:11;17.40;91.00
36352;DHT22;22382;44.768;17.206;2024-03-22T08:35:37;17.30;90.10
36352;DHT22;22382;44.768;17.206;2024-03-22T08:38:04;17.40;90.40
36352;DHT22;22382;44.768;17.206;2024-03-22T08:40:38;17.40;90.60
36352;DHT22;22382;44.768;17.206;2024-03-22T08:43:06;17.20;90.70
36352;DHT22;22382;44.768;17.206;2024-03-22T08:45:35;16.90;88.90
36352;DHT22;22382;44.768;17.206;2024-03-22T08:48:01;17.00;89.40
36352;DHT22;22382;44.768;17.206;2024-03-22T08:50:27;17.00;86.40
36352;DHT22;22382;44.768;17.206;2024-03-22T08:52:54;17.10;87.00
36352;DHT22;22382;44.768;17.206;2024-03-22T08:55:20;16.90;88.10
36352;DHT22;22382;44.768;17.206;2024-03-22T08:57:46;16.80;86.90
36352;DHT22;22382;44.768;17.206;2024-03-22T09:00:12;17.00;87.50
36352;DHT22;22382;44.768;17.206;2024-03-22T09:02:38;17.30;82.50
36352;DHT22;22382;44.768;17.206;2024-03-22T09:05:05;17.80;80.90
36352;DHT22;22382;44.768;17.206;2024-03-22T09:07:32;17.80;84.10
36352;DHT22;22382;44.768;17.206;2024-03-22T09:09:58;18.00;83.00
36352;DHT22;22382;44.768;17.206;2024-03-22T09:12:24;18.30;81.50
36352;DHT22;22382;44.768;17.206;2024-03-22T09:14:50;18.70;80.10
36352;DHT22;22382;44.768;17.206;2024-03-22T09:17:16;18.90;79.10
36352;DHT22;22382;44.768;17.206;2024-03-22T09:19:42;18.90;77.80
36352;DHT22;22382;44.768;17.206;2024-03-22T09:22:08;19.10;75.70
36352;DHT22;22382;44.768;17.206;2024-03-22T09:24:35;19.30;72.50
36352;DHT22;22382;44.768;17.206;2024-03-22T09:27:01;19.20;73.50
36352;DHT22;22382;44.768;17.206;2024-03-22T09:29:30;19.10;73.10
36352;DHT22;22382;44.768;17.206;2024-03-22T09:31:56;19.20;74.40
36352;DHT22;22382;44.768;17.206;2024-03-22T09:34:22;19.40;73.20
36352;DHT22;22382;44.768;17.206;2024-03-22T09:36:48;19.20;69.80
36352;DHT22;22382;44.768;17.206;2024-03-22T09:39:14;19.10;70.30
36352;DHT22;22382;44.768;17.206;2024-03-22T09:41:44;19.20;69.00
36352;DHT22;22382;44.768;17.206;2024-03-22T09:44:14;19.20;66.00
36352;DHT22;22382;44.768;17.206;2024-03-22T09:46:43;19.40;65.50
36352;DHT22;22382;44.768;17.206;2024-03-22T09:49:10;19.30;64.10
36352;DHT22;22382;44.768;17.206;2024-03-22T09:51:38;19.90;65.50
36352;DHT22;22382;44.768;17.206;2024-03-22T09:54:05;20.10;64.00
36352;DHT22;22382;44.768;17.206;2024-03-22T09:56:31;20.40;63.80
36352;DHT22;22382;44.768;17.206;2024-03-22T09:58:58;20.30;62.50
36352;DHT22;22382;44.768;17.206;2024-03-22T10:01:25;20.30;63.70
36352;DHT22;22382;44.768;17.206;2024-03-22T10:03:54;20.00;63.30
36352;DHT22;22382;44.768;17.206;2024-03-22T10:06:22;19.30;64.30
36352;DHT22;22382;44.768;17.206;2024-03-22T10:08:48;19.20;65.60
36352;DHT22;22382;44.768;17.206;2024-03-22T10:11:14;19.20;69.00
36352;DHT22;22382;44.768;17.206;2024-03-22T10:13:41;18.80;72.70
36352;DHT22;22382;44.768;17.206;2024-03-22T10:16:07;18.50;74.80
36352;DHT22;22382;44.768;17.206;2024-03-22T10:18:33;18.20;76.50
36352;DHT22;22382;44.768;17.206;2024-03-22T10:21:04;18.30;77.20
36352;DHT22;22382;44.768;17.206;2024-03-22T10:23:31;18.30;77.20
36352;DHT22;22382;44.768;17.206;2024-03-22T10:25:57;18.40;77.10
36352;DHT22;22382;44.768;17.206;2024-03-22T10:28:26;18.50;76.50
36352;DHT22;22382;44.768;17.206;2024-03-22T10:30:53;18.50;75.90
36352;DHT22;22382;44.768;17.206;2024-03-22T10:33:20;18.70;75.60
36352;DHT22;22382;44.768;17.206;2024-03-22T10:35:53;18.90;76.20
36352;DHT22;22382;44.768;17.206;2024-03-22T10:38:21;18.70;76.00
36352;DHT22;22382;44.768;17.206;2024-03-22T10:40:48;18.90;75.40
36352;DHT22;22382;44.768;17.206;2024-03-22T10:43:15;18.80;74.50
36352;DHT22;22382;44.768;17.206;2024-03-22T10:45:42;19.10;74.10
36352;DHT22;22382;44.768;17.206;2024-03-22T10:48:12;19.20;71.40
36352;DHT22;22382;44.768;17.206;2024-03-22T10:50:39;19.30;71.60
36352;DHT22;22382;44.768;17.206;2024-03-22T10:53:22;19.20;72.40
36352;DHT22;22382;44.768;17.206;2024-03-22T10:55:51;19.10;72.70
36352;DHT22;22382;44.768;17.206;2024-03-22T10:58:21;18.70;73.50
36352;DHT22;22382;44.768;17.206;2024-03-22T11:00:47;18.40;74.90
36352;DHT22;22382;44.768;17.206;2024-03-22T11:03:20;18.10;77.30
36352;DHT22;22382;44.768;17.206;2024-03-22T11:05:47;17.80;77.90
36352;DHT22;22382;44.768;17.206;2024-03-22T11:08:22;17.80;78.10
36352;DHT22;22382;44.768;17.206;2024-03-22T11:10:48;17.80;78.30
36352;DHT22;22382;44.768;17.206;2024-03-22T11:13:16;17.80;78.60
36352;DHT22;22382;44.768;17.206;2024-03-22T11:15:43;17.70;78.00
36352;DHT22;22382;44.768;17.206;2024-03-22T11:18:11;17.60;78.20
36352;DHT22;22382;44.768;17.206;2024-03-22T11:20:37;17.70;78.10
36352;DHT22;22382;44.768;17.206;2024-03-22T11:23:07;17.80;78.50
36352;DHT22;22382;44.768;17.206;2024-03-22T11:25:33;18.10;76.30
36352;DHT22;22382;44.768;17.206;2024-03-22T11:28:00;18.20;77.00
36352;DHT22;22382;44.768;17.206;2024-03-22T11:30:29;18.30;76.80
36352;DHT22;22382;44.768;17.206;2024-03-22T11:32:56;18.50;77.00
36352;DHT22;22382;44.768;17.206;2024-03-22T11:35:22;18.60;75.30
36352;DHT22;22382;44.768;17.206;2024-03-22T11:37:50;18.70;75.20
36352;DHT22;22382;44.768;17.206;2024-03-22T11:40:17;18.70;75.20
36352;DHT22;22382;44.768;17.206;2024-03-22T11:42:47;18.90;74.90
36352;DHT22;22382;44.768;17.206;2024-03-22T11:45:16;19.20;75.10
36352;DHT22;22382;44.768;17.206;2024-03-22T11:47:45;19.60;74.50
36352;DHT22;22382;44.768;17.206;2024-03-22T11:50:12;19.90;73.60
36352;DHT22;22382;44.768;17.206;2024-03-22T11:52:42;20.20;70.80
36352;DHT22;22382;44.768;17.206;2024-03-22T11:55:10;20.60;70.60
36352;DHT22;22382;44.768;17.206;2024-03-22T11:57:36;20.70;69.10
36352;DHT22;22382;44.768;17.206;2024-03-22T12:00:04;20.80;67.60
36352;DHT22;22382;44.768;17.206;2024-03-22T12:02:38;20.90;67.60
36352;DHT22;22382;44.768;17.206;2024-03-22T12:05:05;20.30;68.20
36352;DHT22;22382;44.768;17.206;2024-03-22T12:07:31;20.30;69.50
36352;DHT22;22382;44.768;17.206;2024-03-22T12:09:58;20.20;68.40
36352;DHT22;22382;44.768;17.206;2024-03-22T12:12:24;19.90;68.10
36352;DHT22;22382;44.768;17.206;2024-03-22T12:14:51;19.90;69.50
36352;DHT22;22382;44.768;17.206;2024-03-22T12:17:17;19.20;69.20
36352;DHT22;22382;44.768;17.206;2024-03-22T12:19:44;19.40;69.40
36352;DHT22;22382;44.768;17.206;2024-03-22T12:22:10;19.80;69.60
36352;DHT22;22382;44.768;17.206;2024-03-22T12:24:37;20.20;67.90
36352;DHT22;22382;44.768;17.206;2024-03-22T12:27:03;20.30;67.40
36352;DHT22;22382;44.768;17.206;2024-03-22T12:29:32;20.30;67.20
36352;DHT22;22382;44.768;17.206;2024-03-22T12:31:59;20.70;67.10
36352;DHT22;22382;44.768;17.206;2024-03-22T12:34:30;20.10;67.30
36352;DHT22;22382;44.768;17.206;2024-03-22T12:36:57;19.80;68.20
36352;DHT22;22382;44.768;17.206;2024-03-22T12:39:24;19.60;69.50
36352;DHT22;22382;44.768;17.206;2024-03-22T12:41:51;19.80;69.30
36352;DHT22;22382;44.768;17.206;2024-03-22T12:44:17;20.00;68.40
36352;DHT22;22382;44.768;17.206;2024-03-22T12:46:43;19.80;69.50
36352;DHT22;22382;44.768;17.206;2024-03-22T12:49:11;20.30;69.60
36352;DHT22;22382;44.768;17.206;2024-03-22T12:51:37;20.30;68.00
36352;DHT22;22382;44.768;17.206;2024-03-22T12:54:04;20.50;67.90
36352;DHT22;22382;44.768;17.206;2024-03-22T12:56:31;20.10;68.20
36352;DHT22;22382;44.768;17.206;2024-03-22T12:58:58;20.40;67.20
36352;DHT22;22382;44.768;17.206;2024-03-22T13:01:25;20.10;67.50
36352;DHT22;22382;44.768;17.206;2024-03-22T13:03:51;20.20;67.50
36352;DHT22;22382;44.768;17.206;2024-03-22T13:06:17;19.90;67.90
36352;DHT22;22382;44.768;17.206;2024-03-22T13:08:43;19.60;69.50
36352;DHT22;22382;44.768;17.206;2024-03-22T13:11:09;19.40;69.30
36352;DHT22;22382;44.768;17.206;2024-03-22T13:13:36;19.00;69.80
36352;DHT22;22382;44.768;17.206;2024-03-22T13:16:02;18.70;70.20
36352;DHT22;22382;44.768;17.206;2024-03-22T13:18:30;18.50;70.40
36352;DHT22;22382;44.768;17.206;2024-03-22T13:20:56;18.40;70.90
36352;DHT22;22382;44.768;17.206;2024-03-22T13:23:22;18.40;71.60
36352;DHT22;22382;44.768;17.206;2024-03-22T13:25:48;18.40;71.60
36352;DHT22;22382;44.768;17.206;2024-03-22T13:28:15;18.20;71.90
36352;DHT22;22382;44.768;17.206;2024-03-22T13:30:45;18.10;71.70
36352;DHT22;22382;44.768;17.206;2024-03-22T13:33:12;18.20;71.90
36352;DHT22;22382;44.768;17.206;2024-03-22T13:35:38;18.30;71.60
36352;DHT22;22382;44.768;17.206;2024-03-22T13:38:07;18.40;71.50
36352;DHT22;22382;44.768;17.206;2024-03-22T13:40:39;18.40;70.50
36352;DHT22;22382;44.768;17.206;2024-03-22T13:43:06;18.40;69.90
36352;DHT22;22382;44.768;17.206;2024-03-22T13:45:33;18.50;70.00
36352;DHT22;22382;44.768;17.206;2024-03-22T13:48:11;18.50;70.50
36352;DHT22;22382;44.768;17.206;2024-03-22T13:50:38;18.80;70.10
36352;DHT22;22382;44.768;17.206;2024-03-22T13:53:04;19.10;69.60
36352;DHT22;22382;44.768;17.206;2024-03-22T13:55:31;19.30;67.90
36352;DHT22;22382;44.768;17.206;2024-03-22T13:57:58;19.40;68.50
36352;DHT22;22382;44.768;17.206;2024-03-22T14:00:24;19.80;67.90
36352;DHT22;22382;44.768;17.206;2024-03-22T14:02:54;19.90;68.00
36352;DHT22;22382;44.768;17.206;2024-03-22T14:05:22;19.60;67.10
36352;DHT22;22382;44.768;17.206;2024-03-22T14:07:50;19.70;68.00
36352;DHT22;22382;44.768;17.206;2024-03-22T14:10:16;19.80;67.90
36352;DHT22;22382;44.768;17.206;2024-03-22T14:12:45;20.10;67.80
36352;DHT22;22382;44.768;17.206;2024-03-22T14:15:11;20.30;68.00
36352;DHT22;22382;44.768;17.206;2024-03-22T14:17:37;20.50;69.00
36352;DHT22;22382;44.768;17.206;2024-03-22T14:20:04;20.70;67.60
36352;DHT22;22382;44.768;17.206;2024-03-22T14:22:36;20.90;67.90
36352;DHT22;22382;44.768;17.206;2024-03-22T14:25:02;20.80;65.20
36352;DHT22;22382;44.768;17.206;2024-03-22T14:27:29;20.90;64.90
36352;DHT22;22382;44.768;17.206;2024-03-22T14:29:55;21.10;67.50
36352;DHT22;22382;44.768;17.206;2024-03-22T14:32:21;20.60;66.50
36352;DHT22;22382;44.768;17.206;2024-03-22T14:34:47;20.50;65.00
36352;DHT22;22382;44.768;17.206;2024-03-22T14:37:13;20.70;64.80
36352;DHT22;22382;44.768;17.206;2024-03-22T14:39:40;20.90;64.80
36352;DHT22;22382;44.768;17.206;2024-03-22T14:42:07;21.10;64.10
36352;DHT22;22382;44.768;17.206;2024-03-22T14:44:33;21.20;64.90
36352;DHT22;22382;44.768;17.206;2024-03-22T14:47:00;21.30;63.60
36352;DHT22;22382;44.768;17.206;2024-03-22T14:49:26;21.50;62.60
36352;DHT22;22382;44.768;17.206;2024-03-22T14:51:52;21.60;62.70
36352;DHT22;22382;44.768;17.206;2024-03-22T14:54:19;21.40;62.90
36352;DHT22;22382;44.768;17.206;2024-03-22T14:56:45;21.60;62.60
36352;DHT22;22382;44.768;17.206;2024-03-22T14:59:12;21.60;62.30
36352;DHT22;22382;44.768;17.206;2024-03-22T15:01:38;21.70;62.10
36352;DHT22;22382;44.768;17.206;2024-03-22T15:04:04;21.60;61.30
36352;DHT22;22382;44.768;17.206;2024-03-22T15:06:32;21.50;61.90
36352;DHT22;22382;44.768;17.206;2024-03-22T15:08:58;21.30;62.40
36352;DHT22;22382;44.768;17.206;2024-03-22T15:11:27;21.10;62.50
36352;DHT22;22382;44.768;17.206;2024-03-22T15:13:53;20.80;63.00